Elfers, Florida
Current Conditions -  °F | °C
As of 3:55 PM on Saturday 25 Oct 2014 (Local Time) from KCLW Reporting Station
Clear Clear  
Wind Chill: 73°   Ceiling: Unl
Heat Index: 73°   Visibility: 10mi
Dew Point: 48°   Wind: 9mph
Humidity: 41%   Direction: 340°NNW
Pressure: 29.95"   Gusts: 17mph
Location:  28.22°N, 82.72°W
Report Text: KCLW 251955Z AUTO 34008G15KT 10SM CLR 23/09 A2995 RMK AO2
Loading
Personal Weather Stations






























Interactive Weather Map
Tropical Storm Tracking
New forecast layout! Learn more

10-Day Weather Forecast

Advertisements
Track Severe Weather on mobile